Aviation Digital Data Service (ADDS)

Output produced by METARs form (2117 UTC 24 October 2014)
found at http://aviationweather.gov/adds/metars/
 
KBAF 241732Z 2418/2518 34010G18KT P6SM BKN030 
     FM242200 33008KT P6SM BKN040 
     FM250500 33004KT P6SM SCT060